Time;durP1;ratioP1;P1;durP2;ratioP2;P2;SDS_P1;SDS_P2;PMS_P1;PMS_P2;Temp;Humidity;BMP_temperature;BMP_pressure;BME280_temperature;BME280_humidity;BME280_pressure;Samples;Min_cycle;Max_cycle;Signal;HPM_P1;HPM_P2
2022/04/11 00:00:23;;;;;;;8.45;4.10;;;3.00;99.90;;;;;;5052975;28;20051;-51
2022/04/11 00:02:49;;;;;;;8.02;3.67;;;3.00;99.90;;;;;;5052754;28;20033;-51
2022/04/11 00:05:15;;;;;;;8.13;3.25;;;2.90;99.90;;;;;;5052800;28;20047;-53
2022/04/11 00:07:41;;;;;;;8.77;4.00;;;2.90;99.90;;;;;;5052612;28;20041;-52
2022/04/11 00:10:07;;;;;;;9.25;3.85;;;2.90;99.90;;;;;;5052594;28;20033;-51
2022/04/11 00:12:35;;;;;;;9.50;3.95;;;3.00;99.90;;;;;;5052396;28;20046;-54
2022/04/11 00:15:02;;;;;;;9.18;3.50;;;3.00;99.90;;;;;;5052719;28;20119;-51
2022/04/11 00:17:28;;;;;;;6.45;3.10;;;3.00;99.90;;;;;;5052548;28;20128;-50
2022/04/11 00:19:54;;;;;;;8.15;3.47;;;3.00;99.90;;;;;;5052603;28;20465;-52
2022/04/11 00:22:19;;;;;;;9.02;3.60;;;3.00;99.90;;;;;;5052382;28;20366;-50
2022/04/11 00:24:45;;;;;;;11.20;4.72;;;3.00;99.90;;;;;;5052191;28;20083;-51
2022/04/11 00:27:10;;;;;;;9.23;2.95;;;3.00;99.90;;;;;;5052359;28;20029;-51
2022/04/11 00:29:36;;;;;;;13.43;4.00;;;3.00;99.90;;;;;;5051325;28;20037;-50
2022/04/11 00:32:02;;;;;;;7.55;2.90;;;3.00;99.90;;;;;;5052322;28;20120;-51
2022/04/11 00:34:28;;;;;;;11.50;3.75;;;2.90;99.90;;;;;;5052197;28;20037;-51
2022/04/11 00:36:53;;;;;;;8.85;3.72;;;2.90;99.90;;;;;;5052209;28;20029;-51
2022/04/11 00:39:19;;;;;;;12.60;3.92;;;2.80;99.90;;;;;;5052057;28;20041;-51
2022/04/11 00:41:44;;;;;;;8.70;3.58;;;2.90;99.90;;;;;;5034348;28;20036;-50
2022/04/11 00:44:10;;;;;;;10.98;3.30;;;2.80;99.90;;;;;;5052340;28;20037;-51
2022/04/11 00:46:36;;;;;;;6.97;3.58;;;2.80;99.90;;;;;;5052067;28;20397;-51
2022/04/11 00:49:01;;;;;;;14.55;3.55;;;2.80;99.90;;;;;;5052105;28;20041;-51
2022/04/11 00:51:27;;;;;;;8.07;3.45;;;2.80;99.90;;;;;;5052092;28;20045;-52
2022/04/11 00:53:56;;;;;;;8.27;3.78;;;2.90;99.90;;;;;;5052433;28;20032;-52
2022/04/11 00:56:26;;;;;;;8.23;3.05;;;2.80;99.90;;;;;;5052209;28;20040;-53
2022/04/11 00:58:52;;;;;;;8.10;3.33;;;2.80;99.90;;;;;;5052106;28;20037;-54
2022/04/11 01:01:17;;;;;;;9.73;2.95;;;2.80;99.90;;;;;;5051915;28;20059;-51
2022/04/11 01:03:43;;;;;;;9.57;3.58;;;2.70;99.90;;;;;;5051992;28;20044;-51
2022/04/11 01:06:09;;;;;;;9.40;3.30;;;2.70;99.90;;;;;;5051828;28;20471;-52
2022/04/11 01:08:36;;;;;;;7.63;3.13;;;2.70;99.90;;;;;;5051954;28;20051;-51
2022/04/11 01:11:03;;;;;;;8.52;3.25;;;2.70;99.90;;;;;;5052009;28;20044;-50
2022/04/11 01:13:29;;;;;;;8.77;3.30;;;2.70;99.90;;;;;;5051897;28;20037;-51
2022/04/11 01:16:00;;;;;;;8.20;3.58;;;2.70;99.90;;;;;;5051976;28;20049;-52
2022/04/11 01:18:26;;;;;;;7.68;2.72;;;2.70;99.90;;;;;;5051748;28;20041;-51
2022/04/11 01:20:52;;;;;;;8.60;3.20;;;2.70;99.90;;;;;;5051650;28;20037;-51
2022/04/11 01:23:18;;;;;;;8.55;3.40;;;2.70;99.90;;;;;;5050385;28;20413;-51
2022/04/11 01:25:52;;;;;;;7.57;3.30;;;2.60;99.90;;;;;;5052457;28;20041;-51
2022/04/11 01:28:20;;;;;;;8.70;2.97;;;2.60;99.90;;;;;;5055564;28;20460;-52
2022/04/11 01:30:47;;;;;;;6.57;2.72;;;2.60;99.90;;;;;;5055710;28;20041;-51
2022/04/11 01:33:23;;;;;;;7.28;3.00;;;2.60;99.90;;;;;;5055631;28;20037;-50
2022/04/11 01:35:48;;;;;;;7.90;3.20;;;2.60;99.90;;;;;;5055544;28;20052;-50
2022/04/11 01:38:14;;;;;;;9.52;3.33;;;2.50;99.90;;;;;;5055752;28;20048;-50
2022/04/11 01:40:51;;;;;;;7.65;3.03;;;2.40;99.90;;;;;;5055637;28;20041;-54
2022/04/11 01:43:17;;;;;;;8.20;3.20;;;2.50;99.90;;;;;;5054201;28;20041;-51
2022/04/11 01:45:43;;;;;;;9.85;3.80;;;2.40;99.90;;;;;;5055415;28;20044;-51
2022/04/11 01:48:08;;;;;;;9.63;3.40;;;2.50;99.90;;;;;;5055272;28;20443;-50
2022/04/11 01:50:34;;;;;;;8.57;2.88;;;2.40;99.90;;;;;;5055409;28;20037;-53
2022/04/11 01:53:17;;;;;;;7.25;3.42;;;2.40;99.90;;;;;;5069062;28;20089;-53
2022/04/11 01:55:42;;;;;;;9.20;3.22;;;2.40;99.90;;;;;;5075257;28;20568;-53
2022/04/11 01:58:09;;;;;;;11.05;3.20;;;2.40;99.90;;;;;;5075122;28;20120;-52
2022/04/11 02:00:38;;;;;;;10.43;3.15;;;2.40;99.90;;;;;;5075005;28;20041;-51
2022/04/11 02:03:05;;;;;;;10.27;4.65;;;2.40;99.90;;;;;;5075239;28;20044;-50
2022/04/11 02:05:30;;;;;;;9.32;3.40;;;2.40;99.90;;;;;;5075015;28;20037;-50
2022/04/11 02:07:57;;;;;;;8.55;3.35;;;2.40;99.90;;;;;;5075187;28;20097;-51
2022/04/11 02:10:23;;;;;;;8.48;3.00;;;2.40;99.90;;;;;;5073706;28;20068;-51
2022/04/11 02:12:50;;;;;;;8.75;3.30;;;2.40;99.90;;;;;;5074921;28;20131;-51
2022/04/11 02:15:16;;;;;;;7.78;3.00;;;2.30;99.90;;;;;;5074746;28;20052;-51
2022/04/11 02:17:42;;;;;;;6.80;3.00;;;2.30;99.90;;;;;;5074676;28;20101;-50
2022/04/11 02:20:11;;;;;;;8.90;3.30;;;2.40;99.90;;;;;;5074892;28;20048;-50
2022/04/11 02:22:48;;;;;;;5.82;2.70;;;2.40;99.90;;;;;;5074451;28;20049;-52
2022/04/11 02:25:14;;;;;;;9.45;3.40;;;2.30;99.90;;;;;;5055036;28;20545;-50
2022/04/11 02:27:41;;;;;;;8.13;3.28;;;2.30;99.90;;;;;;5054427;28;20061;-51
2022/04/11 02:30:07;;;;;;;8.57;4.43;;;2.30;99.90;;;;;;5054761;28;20045;-50
2022/04/11 02:32:33;;;;;;;9.75;3.63;;;2.40;99.90;;;;;;5053353;28;20041;-53
2022/04/11 02:34:58;;;;;;;8.98;2.90;;;2.30;99.90;;;;;;5070125;28;20033;-51
2022/04/11 02:37:24;;;;;;;7.10;3.08;;;2.40;99.90;;;;;;5053124;28;20045;-52
2022/04/11 02:39:50;;;;;;;8.45;3.55;;;2.30;99.90;;;;;;5054525;28;20048;-50
2022/04/11 02:42:22;;;;;;;7.88;3.28;;;2.40;99.90;;;;;;5054246;28;20400;-50
2022/04/11 02:44:49;;;;;;;9.13;2.95;;;2.30;99.90;;;;;;5069629;28;20059;-51
2022/04/11 02:47:15;;;;;;;6.40;3.13;;;2.40;99.90;;;;;;5054156;28;20044;-51
2022/04/11 02:49:40;;;;;;;8.32;3.42;;;2.30;99.90;;;;;;5054453;28;20416;-50
2022/04/11 02:52:06;;;;;;;8.35;4.18;;;2.30;99.90;;;;;;5059045;28;20044;-52
2022/04/11 02:54:32;;;;;;;9.30;3.33;;;2.20;99.90;;;;;;5074214;28;20397;-50
2022/04/11 02:56:57;;;;;;;7.35;3.22;;;2.20;99.90;;;;;;5074258;28;20033;-51
2022/04/11 02:59:23;;;;;;;8.35;2.92;;;2.20;99.90;;;;;;5074062;28;20041;-52
2022/04/11 03:01:50;;;;;;;8.82;3.35;;;2.20;99.90;;;;;;5074126;28;20040;-52
2022/04/11 03:04:16;;;;;;;6.57;3.03;;;2.20;99.90;;;;;;5073945;28;20115;-52
2022/04/11 03:06:42;;;;;;;11.48;3.50;;;2.20;99.90;;;;;;5073932;28;20120;-53
2022/04/11 03:09:08;;;;;;;6.75;3.10;;;2.10;99.90;;;;;;5056090;28;20143;-51
2022/04/11 03:11:34;;;;;;;9.05;3.80;;;2.10;99.90;;;;;;5072509;28;20036;-50
2022/04/11 03:14:00;;;;;;;7.68;3.10;;;2.20;99.90;;;;;;5073700;28;20044;-51
2022/04/11 03:16:26;;;;;;;6.00;2.80;;;2.10;99.90;;;;;;5074032;28;20438;-53
2022/04/11 03:18:52;;;;;;;8.38;3.28;;;2.10;99.90;;;;;;5073653;28;20045;-53
2022/04/11 03:21:17;;;;;;;8.98;3.28;;;2.20;99.90;;;;;;5073640;28;20040;-52
2022/04/11 03:23:43;;;;;;;9.57;3.35;;;2.20;99.90;;;;;;5062680;28;20401;-51
2022/04/11 03:26:09;;;;;;;8.18;3.42;;;2.20;99.90;;;;;;5052202;28;20120;-54
2022/04/11 03:28:34;;;;;;;7.35;3.08;;;2.30;99.90;;;;;;5053402;28;20049;-52
2022/04/11 03:31:00;;;;;;;11.18;3.85;;;2.40;99.90;;;;;;5053598;28;20063;-51
2022/04/11 03:33:26;;;;;;;7.97;3.20;;;2.40;99.90;;;;;;5052049;28;20041;-52
2022/04/11 03:35:52;;;;;;;12.55;4.70;;;2.40;99.90;;;;;;5053363;28;20037;-54
2022/04/11 03:38:18;;;;;;;8.27;3.40;;;2.50;99.90;;;;;;5053196;28;20044;-51
2022/04/11 03:40:43;;;;;;;11.00;3.78;;;2.50;99.90;;;;;;5053392;28;20039;-51
2022/04/11 03:43:09;;;;;;;9.27;4.20;;;2.60;99.90;;;;;;5053347;28;20045;-52
2022/04/11 03:45:35;;;;;;;11.32;3.45;;;2.60;99.90;;;;;;5053105;28;20102;-51
2022/04/11 03:48:01;;;;;;;10.15;3.70;;;2.70;99.90;;;;;;5052838;28;20448;-51
2022/04/11 03:50:26;;;;;;;8.68;3.60;;;2.70;99.90;;;;;;5053030;28;20033;-53
2022/04/11 03:52:52;;;;;;;7.90;3.38;;;2.60;99.90;;;;;;5065405;28;20036;-51
2022/04/11 03:55:18;;;;;;;6.65;3.30;;;2.70;99.90;;;;;;5073095;28;20066;-51
2022/04/11 03:57:43;;;;;;;9.68;4.10;;;2.70;99.90;;;;;;5072776;28;20033;-54
2022/04/11 04:00:10;;;;;;;8.00;3.78;;;2.70;99.90;;;;;;5072933;28;20044;-52
2022/04/11 04:02:35;;;;;;;8.60;3.50;;;2.80;99.90;;;;;;5072789;28;20404;-52
2022/04/11 04:05:01;;;;;;;9.98;3.78;;;2.80;99.90;;;;;;5072673;28;20052;-54
2022/04/11 04:07:27;;;;;;;6.80;2.85;;;2.90;99.90;;;;;;5071398;28;20041;-51
2022/04/11 04:09:53;;;;;;;7.65;3.15;;;2.90;99.90;;;;;;5072793;28;20076;-53
2022/04/11 04:12:20;;;;;;;8.25;3.88;;;3.00;99.90;;;;;;5072511;28;20036;-51
2022/04/11 04:14:47;;;;;;;8.63;3.00;;;3.00;99.90;;;;;;5072659;28;20052;-52
2022/04/11 04:17:13;;;;;;;9.90;3.33;;;3.00;99.90;;;;;;5072526;28;20408;-55
2022/04/11 04:19:38;;;;;;;7.50;3.10;;;3.10;99.90;;;;;;5071328;28;20048;-54
2022/04/11 04:22:04;;;;;;;7.80;2.72;;;3.10;99.90;;;;;;5072347;28;20501;-52
2022/04/11 04:24:32;;;;;;;9.20;3.25;;;3.00;99.90;;;;;;5056326;28;20570;-54
2022/04/11 04:26:57;;;;;;;9.55;3.38;;;3.00;99.90;;;;;;5052730;28;20052;-54
2022/04/11 04:29:24;;;;;;;8.20;3.45;;;3.00;99.90;;;;;;5051962;28;20072;-52
2022/04/11 04:31:50;;;;;;;8.00;3.58;;;3.00;99.90;;;;;;5052279;28;20068;-51
2022/04/11 04:34:16;;;;;;;7.60;3.45;;;3.10;99.90;;;;;;5052249;28;20032;-50
2022/04/11 04:36:42;;;;;;;8.45;3.80;;;3.10;99.90;;;;;;5052241;28;20083;-50
2022/04/11 04:39:07;;;;;;;8.32;3.72;;;3.10;99.90;;;;;;5051467;28;20071;-54
2022/04/11 04:41:33;;;;;;;10.68;3.40;;;3.10;99.90;;;;;;5051285;28;20087;-51
2022/04/11 04:43:59;;;;;;;7.13;3.50;;;3.10;99.90;;;;;;5050557;28;20126;-51
2022/04/11 04:46:25;;;;;;;8.82;4.88;;;3.10;99.90;;;;;;5050536;28;20136;-51
2022/04/11 04:48:51;;;;;;;9.45;4.88;;;3.20;99.90;;;;;;5050700;28;20084;-50
2022/04/11 04:51:18;;;;;;;11.70;5.10;;;3.20;99.90;;;;;;5050506;28;20378;-50
2022/04/11 04:53:44;;;;;;;10.48;5.20;;;3.10;99.90;;;;;;5070402;28;20378;-51
2022/04/11 04:56:10;;;;;;;9.13;4.13;;;3.20;99.90;;;;;;5070627;28;20094;-50
2022/04/11 04:58:35;;;;;;;7.68;3.35;;;3.30;99.90;;;;;;5070444;28;20166;-51
2022/04/11 05:01:01;;;;;;;7.45;3.92;;;3.20;99.90;;;;;;5069684;28;20052;-54
2022/04/11 05:03:26;;;;;;;8.35;2.92;;;3.20;99.90;;;;;;5070409;28;20124;-51
2022/04/11 05:05:52;;;;;;;8.68;3.05;;;3.30;99.90;;;;;;5070420;28;20076;-51
2022/04/11 05:08:18;;;;;;;6.93;2.70;;;3.30;99.90;;;;;;5070646;28;20542;-51
2022/04/11 05:10:44;;;;;;;6.55;2.78;;;3.30;99.90;;;;;;5070525;28;20051;-53
2022/04/11 05:13:10;;;;;;;11.23;2.80;;;3.40;99.90;;;;;;5070499;28;20063;-52
2022/04/11 05:15:36;;;;;;;8.80;2.90;;;3.30;99.90;;;;;;5070458;28;20476;-52
2022/04/11 05:18:01;;;;;;;7.45;2.75;;;3.40;99.90;;;;;;5070324;28;20443;-52
2022/04/11 05:20:27;;;;;;;6.93;2.40;;;3.40;99.90;;;;;;5070224;28;20059;-54
2022/04/11 05:22:52;;;;;;;8.43;2.95;;;3.50;99.90;;;;;;5068180;28;20040;-53
2022/04/11 05:25:19;;;;;;;8.43;3.05;;;3.50;99.90;;;;;;5065442;28;20041;-51
2022/04/11 05:27:44;;;;;;;5.85;2.90;;;3.40;99.90;;;;;;5050307;28;20041;-54
2022/04/11 05:30:10;;;;;;;9.20;3.30;;;3.40;99.90;;;;;;5049932;28;20187;-52
2022/04/11 05:32:36;;;;;;;9.48;2.80;;;3.50;99.90;;;;;;5050226;28;20036;-51
2022/04/11 05:35:02;;;;;;;13.07;3.05;;;3.50;99.90;;;;;;5049945;28;20045;-54
2022/04/11 05:37:27;;;;;;;7.40;2.50;;;3.50;99.90;;;;;;5050205;28;20091;-53
2022/04/11 05:39:53;;;;;;;7.57;2.67;;;3.60;99.90;;;;;;5050104;28;20045;-53
2022/04/11 05:42:19;;;;;;;7.05;2.80;;;3.70;99.90;;;;;;5049852;28;20043;-52
2022/04/11 05:44:44;;;;;;;8.30;2.63;;;3.70;99.90;;;;;;5048566;28;20049;-51
2022/04/11 05:47:12;;;;;;;7.13;2.42;;;3.80;99.90;;;;;;5049956;28;20040;-54
2022/04/11 05:49:39;;;;;;;5.05;2.38;;;3.80;99.90;;;;;;5049926;28;20464;-51
2022/04/11 05:52:06;;;;;;;8.50;2.67;;;3.80;99.90;;;;;;5054573;28;20048;-54
2022/04/11 05:54:34;;;;;;;7.45;3.10;;;3.80;99.90;;;;;;5054577;28;20090;-52
2022/04/11 05:57:00;;;;;;;8.20;3.42;;;3.70;99.90;;;;;;5040613;28;20445;-53
2022/04/11 05:59:26;;;;;;;7.35;2.50;;;3.90;99.90;;;;;;5056228;28;20071;-51
2022/04/11 06:01:51;;;;;;;7.15;3.00;;;3.80;99.90;;;;;;5040382;28;20040;-55
2022/04/11 06:04:17;;;;;;;9.65;3.15;;;3.90;99.90;;;;;;5038656;28;20069;-54
2022/04/11 06:06:43;;;;;;;7.88;2.58;;;4.00;99.90;;;;;;5039537;28;20048;-53
2022/04/11 06:09:08;;;;;;;8.23;3.30;;;4.00;99.90;;;;;;5040311;28;20044;-51
2022/04/11 06:11:34;;;;;;;8.07;2.92;;;4.10;99.90;;;;;;5040180;28;20036;-52
2022/04/11 06:14:00;;;;;;;9.60;3.00;;;4.10;99.90;;;;;;5043346;28;20504;-54
2022/04/11 06:16:25;;;;;;;7.93;3.03;;;4.10;99.90;;;;;;5043063;28;20041;-52
2022/04/11 06:18:51;;;;;;;7.13;2.95;;;4.20;99.90;;;;;;5041754;28;20042;-51
2022/04/11 06:21:17;;;;;;;8.05;3.05;;;4.20;99.90;;;;;;5044361;28;20406;-53
2022/04/11 06:23:42;;;;;;;8.55;3.47;;;4.30;99.90;;;;;;5059009;28;20155;-54
2022/04/11 06:26:08;;;;;;;8.73;4.28;;;4.40;99.90;;;;;;5033048;28;20084;-52
2022/04/11 06:28:34;;;;;;;9.20;3.50;;;4.40;99.90;;;;;;5060874;28;20041;-52
2022/04/11 06:30:59;;;;;;;11.23;3.88;;;4.40;99.90;;;;;;5032911;28;20048;-54
2022/04/11 06:33:25;;;;;;;9.50;4.25;;;4.50;99.90;;;;;;5032562;28;20079;-54
2022/04/11 06:35:51;;;;;;;12.80;4.60;;;4.60;99.90;;;;;;5033094;28;20106;-52
2022/04/11 06:38:16;;;;;;;14.32;4.88;;;4.60;99.90;;;;;;5033058;28;20041;-53
2022/04/11 06:40:42;;;;;;;9.70;4.45;;;4.80;99.90;;;;;;5032824;28;21033;-51
2022/04/11 06:43:08;;;;;;;11.05;3.90;;;4.80;99.90;;;;;;5032798;28;20046;-53
2022/04/11 06:45:33;;;;;;;10.82;3.65;;;4.80;99.90;;;;;;5032365;28;20049;-54
2022/04/11 06:47:59;;;;;;;11.43;3.90;;;4.90;99.90;;;;;;5032423;28;20273;-54
2022/04/11 06:50:24;;;;;;;10.82;3.63;;;5.00;99.90;;;;;;5032026;28;20038;-54
2022/04/11 06:52:50;;;;;;;10.02;3.70;;;5.10;99.90;;;;;;5056711;28;20123;-54
2022/04/11 06:55:16;;;;;;;11.10;3.70;;;5.10;99.90;;;;;;5072372;28;20048;-51
2022/04/11 06:57:41;;;;;;;10.25;3.72;;;5.20;99.90;;;;;;5072389;28;20076;-51
2022/04/11 07:00:07;;;;;;;10.85;3.47;;;5.30;99.90;;;;;;5071989;28;20044;-52
2022/04/11 07:02:33;;;;;;;12.13;3.95;;;5.40;99.90;;;;;;5070568;28;20045;-53
2022/04/11 07:04:59;;;;;;;7.72;3.13;;;5.50;99.90;;;;;;5071100;28;20401;-54
2022/04/11 07:07:24;;;;;;;8.45;3.22;;;5.60;99.90;;;;;;5071633;28;20481;-51
2022/04/11 07:09:50;;;;;;;8.48;3.30;;;5.60;99.90;;;;;;5071956;28;20119;-54
2022/04/11 07:12:16;;;;;;;10.75;4.60;;;5.80;99.90;;;;;;5071809;28;20036;-51
2022/04/11 07:14:41;;;;;;;9.98;3.80;;;5.80;99.90;;;;;;5071512;28;20071;-53
2022/04/11 07:17:07;;;;;;;9.95;3.80;;;5.80;99.90;;;;;;5071330;28;20036;-52
2022/04/11 07:19:33;;;;;;;11.23;4.55;;;5.90;99.90;;;;;;5071843;28;20041;-54
2022/04/11 07:21:58;;;;;;;7.15;3.35;;;5.90;99.90;;;;;;5070696;28;20158;-54
2022/04/11 07:24:24;;;;;;;8.23;3.28;;;6.00;99.90;;;;;;5054940;28;20029;-52
2022/04/11 07:26:50;;;;;;;7.53;3.28;;;6.00;99.90;;;;;;5051554;28;20121;-54
2022/04/11 07:29:16;;;;;;;9.95;3.30;;;6.10;99.90;;;;;;5066900;28;20079;-54
2022/04/11 07:31:41;;;;;;;9.40;3.67;;;6.20;99.90;;;;;;5050391;28;20041;-53
2022/04/11 07:34:07;;;;;;;9.40;3.25;;;6.20;99.90;;;;;;5051905;28;20041;-53
2022/04/11 07:36:33;;;;;;;7.82;3.72;;;6.30;99.90;;;;;;5051806;28;20393;-53
2022/04/11 07:38:58;;;;;;;10.38;3.50;;;6.40;99.90;;;;;;5052440;28;20045;-53
2022/04/11 07:41:25;;;;;;;9.82;3.20;;;6.30;99.90;;;;;;5052375;28;20033;-54
2022/04/11 07:43:53;;;;;;;8.93;3.85;;;6.40;99.90;;;;;;5050419;28;20045;-53
2022/04/11 07:46:19;;;;;;;7.95;3.45;;;6.50;99.90;;;;;;5051293;28;20064;-54
2022/04/11 07:48:44;;;;;;;7.75;3.13;;;6.50;99.90;;;;;;5051618;28;20410;-54
2022/04/11 07:51:11;;;;;;;9.00;3.28;;;6.70;99.90;;;;;;5051279;28;20127;-52
2022/04/11 07:53:36;;;;;;;7.50;2.90;;;6.70;99.90;;;;;;5070136;28;20044;-54
2022/04/11 07:56:02;;;;;;;6.65;2.40;;;6.80;99.90;;;;;;5071109;28;20051;-55
2022/04/11 07:58:28;;;;;;;9.20;2.65;;;6.80;99.90;;;;;;5071162;28;20098;-55
2022/04/11 08:00:53;;;;;;;9.05;2.55;;;6.90;99.90;;;;;;5069752;28;20532;-51
2022/04/11 08:03:20;;;;;;;6.63;2.88;;;7.00;99.90;;;;;;5071278;28;20544;-55
2022/04/11 08:05:46;;;;;;;10.95;3.47;;;7.10;99.90;;;;;;5070968;28;20040;-53
2022/04/11 08:08:12;;;;;;;7.63;2.67;;;7.20;99.90;;;;;;5071161;28;20115;-54
2022/04/11 08:10:38;;;;;;;10.02;3.40;;;7.20;99.90;;;;;;5071123;28;20111;-54
2022/04/11 08:13:04;;;;;;;7.45;2.40;;;7.30;99.90;;;;;;5071099;28;20037;-53
2022/04/11 08:15:32;;;;;;;7.90;2.45;;;7.40;99.90;;;;;;5070757;28;20114;-52
2022/04/11 08:17:59;;;;;;;8.70;2.78;;;7.40;99.90;;;;;;5070674;28;20052;-52
2022/04/11 08:20:25;;;;;;;9.65;2.30;;;7.60;99.90;;;;;;5070808;28;20047;-52
2022/04/11 08:22:51;;;;;;;8.98;2.40;;;7.50;99.90;;;;;;5068127;28;20094;-54
2022/04/11 08:25:17;;;;;;;8.30;2.15;;;7.70;99.90;;;;;;5050570;28;20036;-52
2022/04/11 08:27:43;;;;;;;9.52;2.55;;;7.70;99.90;;;;;;5050714;28;20051;-55
2022/04/11 08:30:10;;;;;;;8.57;2.97;;;7.80;99.90;;;;;;5050504;28;20065;-54
2022/04/11 08:32:43;;;;;;;6.10;2.10;;;7.80;99.90;;;;;;5050789;28;20053;-51
2022/04/11 08:35:10;;;;;;;9.65;2.33;;;7.90;99.90;;;;;;5049460;28;20040;-54
2022/04/11 08:37:37;;;;;;;6.15;2.03;;;8.10;99.90;;;;;;5050586;28;20045;-51
2022/04/11 08:40:13;;;;;;;7.00;2.00;;;8.20;99.90;;;;;;5049313;28;20429;-54
2022/04/11 08:42:40;;;;;;;12.75;3.17;;;8.40;99.90;;;;;;5050453;28;20062;-52
2022/04/11 08:45:07;;;;;;;7.00;2.92;;;8.50;99.90;;;;;;5050607;28;20045;-54
2022/04/11 08:47:34;;;;;;;9.02;2.28;;;8.50;99.90;;;;;;5050427;28;20041;-54
2022/04/11 08:50:02;;;;;;;6.30;2.40;;;8.60;99.90;;;;;;5050523;28;20068;-55
2022/04/11 08:52:29;;;;;;;5.40;2.10;;;8.60;99.90;;;;;;5059603;28;20286;-51
2022/04/11 08:54:55;;;;;;;6.55;1.63;;;8.70;99.90;;;;;;5070405;28;20393;-51
2022/04/11 08:57:22;;;;;;;8.05;2.03;;;8.60;99.90;;;;;;5070376;28;20389;-53
2022/04/11 08:59:48;;;;;;;5.75;1.67;;;8.70;99.90;;;;;;5070306;28;20041;-54
2022/04/11 09:02:14;;;;;;;8.93;2.13;;;8.80;99.90;;;;;;5070434;28;20048;-54
2022/04/11 09:04:54;;;;;;;8.48;2.05;;;8.90;99.90;;;;;;5070740;28;20032;-53
2022/04/11 09:07:20;;;;;;;8.68;2.25;;;8.90;99.90;;;;;;5070385;28;20041;-55
2022/04/11 09:09:46;;;;;;;6.97;2.40;;;9.00;99.90;;;;;;5070190;28;20145;-55
2022/04/11 09:12:16;;;;;;;5.40;1.95;;;9.10;99.90;;;;;;5070301;28;20072;-54
2022/04/11 09:14:43;;;;;;;7.70;2.45;;;9.20;99.90;;;;;;5070147;28;20044;-51
2022/04/11 09:17:10;;;;;;;7.90;1.88;;;9.20;99.90;;;;;;5069803;28;20134;-54
2022/04/11 09:19:38;;;;;;;5.32;1.65;;;9.30;99.90;;;;;;5069745;28;20059;-55
2022/04/11 09:22:05;;;;;;;6.53;1.50;;;9.40;99.90;;;;;;5069584;28;20120;-51
2022/04/11 09:24:31;;;;;;;8.45;1.98;;;9.40;99.90;;;;;;5053894;28;20064;-54
2022/04/11 09:26:58;;;;;;;4.88;1.58;;;9.50;99.90;;;;;;5050069;28;20449;-54
2022/04/11 09:29:25;;;;;;;5.03;1.58;;;9.50;99.90;;;;;;5049595;28;20064;-54
2022/04/11 09:31:51;;;;;;;8.73;1.80;;;9.60;99.90;;;;;;5065334;28;20049;-52
2022/04/11 09:34:22;;;;;;;7.55;2.05;;;9.60;99.90;;;;;;5065353;28;20068;-52
2022/04/11 09:36:50;;;;;;;8.05;1.70;;;9.80;99.90;;;;;;5049837;28;20048;-53
2022/04/11 09:39:20;;;;;;;7.05;1.90;;;9.90;99.90;;;;;;5049931;28;20051;-52
2022/04/11 09:41:47;;;;;;;5.63;1.80;;;9.90;99.90;;;;;;5039476;28;20037;-52
2022/04/11 09:44:22;;;;;;;7.75;2.17;;;10.00;99.90;;;;;;5036466;28;20045;-53
2022/04/11 09:46:49;;;;;;;9.98;1.92;;;10.00;99.90;;;;;;5030516;28;20054;-54
2022/04/11 09:49:15;;;;;;;7.50;2.08;;;10.00;99.90;;;;;;5032227;28;20489;-54
2022/04/11 09:52:08;;;;;;;5.45;1.80;;;10.20;99.90;;;;;;5039478;28;20076;-54
2022/04/11 09:54:44;;;;;;;5.88;1.63;;;10.20;99.90;;;;;;5073889;28;20055;-52
2022/04/11 09:57:12;;;;;;;8.02;2.40;;;10.30;99.90;;;;;;5073662;28;20041;-55
2022/04/11 09:59:39;;;;;;;5.68;1.80;;;10.40;99.90;;;;;;5073456;28;20059;-52
2022/04/11 10:02:06;;;;;;;6.57;1.90;;;10.30;99.90;;;;;;5072569;28;20381;-51
2022/04/11 10:04:33;;;;;;;6.97;1.67;;;10.30;99.90;;;;;;5073791;28;20071;-51
2022/04/11 10:06:59;;;;;;;5.72;1.92;;;10.50;99.90;;;;;;5074976;28;20098;-53
2022/04/11 10:09:25;;;;;;;9.43;2.38;;;10.40;99.90;;;;;;5074907;28;20032;-53
2022/04/11 10:11:55;;;;;;;7.68;1.90;;;10.50;99.90;;;;;;5073419;28;20098;-55
2022/04/11 10:14:26;;;;;;;5.50;2.35;;;10.60;99.90;;;;;;5074696;28;20040;-53
2022/04/11 10:16:57;;;;;;;6.68;1.80;;;10.60;99.90;;;;;;5074832;28;20050;-54
2022/04/11 10:19:25;;;;;;;8.52;2.42;;;10.60;99.90;;;;;;5073741;28;20041;-55
2022/04/11 10:21:54;;;;;;;6.22;2.33;;;10.60;99.90;;;;;;5074723;28;20040;-54
2022/04/11 10:24:34;;;;;;;7.20;2.30;;;10.80;99.90;;;;;;5060008;28;20040;-52
2022/04/11 10:27:16;;;;;;;6.60;2.08;;;10.80;99.90;;;;;;5070212;28;20057;-52
2022/04/11 10:29:43;;;;;;;7.93;2.85;;;10.80;99.90;;;;;;5069733;28;20071;-52
2022/04/11 10:32:11;;;;;;;7.18;2.50;;;10.90;99.90;;;;;;5054669;28;20134;-50
2022/04/11 10:34:49;;;;;;;8.15;2.30;;;10.90;99.90;;;;;;5054351;28;20407;-50
2022/04/11 10:37:17;;;;;;;11.13;3.17;;;10.90;99.90;;;;;;5054275;28;20394;-49
2022/04/11 10:39:44;;;;;;;7.00;2.45;;;11.00;99.90;;;;;;5054205;28;20045;-50
2022/04/11 10:42:17;;;;;;;8.40;2.90;;;11.10;99.90;;;;;;5054172;28;20093;-49
2022/04/11 10:44:45;;;;;;;6.40;2.65;;;11.30;99.90;;;;;;5054219;28;20076;-50
2022/04/11 10:47:15;;;;;;;7.25;2.80;;;11.20;99.90;;;;;;5054204;28;20355;-50
2022/04/11 10:49:55;;;;;;;8.40;2.67;;;11.20;99.90;;;;;;5054148;28;20549;-50
2022/04/11 10:52:27;;;;;;;8.10;2.58;;;11.30;99.90;;;;;;5062508;28;20051;-50
2022/04/11 10:54:56;;;;;;;6.43;2.58;;;11.30;99.90;;;;;;5074309;28;20040;-50
2022/04/11 10:57:34;;;;;;;6.85;2.90;;;11.40;99.90;;;;;;5073088;28;20041;-51
2022/04/11 11:00:23;;;;;;;6.70;2.58;;;11.50;99.90;;;;;;5073771;28;20534;-50
2022/04/11 11:05:26;;;;;;;9.15;2.90;;;11.60;99.90;;;;;;5073816;28;20071;-49
2022/04/11 11:08:07;;;;;;;8.30;2.67;;;11.70;99.90;;;;;;5073722;28;20037;-49
2022/04/11 11:10:56;;;;;;;10.05;3.10;;;11.80;99.90;;;;;;5073286;28;20531;-50
2022/04/11 11:13:41;;;;;;;7.55;2.80;;;11.80;99.90;;;;;;5073587;28;20119;-49
2022/04/11 11:16:07;;;;;;;9.10;2.85;;;11.90;99.90;;;;;;5073470;28;20396;-49
2022/04/11 11:18:53;;;;;;;7.80;2.90;;;11.80;99.90;;;;;;5073432;28;20135;-50
2022/04/11 11:21:44;;;;;;;7.93;2.70;;;12.00;99.90;;;;;;5072104;28;20040;-50
2022/04/11 11:24:11;;;;;;;9.57;3.00;;;12.10;99.90;;;;;;5053473;28;20163;-51
2022/04/11 11:26:40;;;;;;;8.15;3.17;;;12.00;99.90;;;;;;5053485;28;20056;-50
2022/04/11 11:29:17;;;;;;;11.23;3.13;;;12.00;99.90;;;;;;5053167;28;20063;-50
2022/04/11 11:31:43;;;;;;;13.45;3.30;;;12.20;99.90;;;;;;5053537;28;20073;-51
2022/04/11 11:34:11;;;;;;;6.93;2.80;;;12.10;99.90;;;;;;5053121;28;20119;-49
2022/04/11 11:36:38;;;;;;;8.27;2.90;;;12.20;99.90;;;;;;5053224;28;20102;-49
2022/04/11 11:39:25;;;;;;;8.43;2.95;;;12.20;99.90;;;;;;5053206;28;20107;-50
2022/04/11 11:41:53;;;;;;;8.73;2.90;;;12.20;99.90;;;;;;5052580;28;20037;-51
2022/04/11 11:44:20;;;;;;;8.13;3.13;;;12.30;99.90;;;;;;5068115;28;20128;-50
2022/04/11 11:46:49;;;;;;;7.88;3.40;;;12.30;99.90;;;;;;5053056;28;20048;-51
2022/04/11 11:49:15;;;;;;;8.00;3.08;;;12.10;99.90;;;;;;5053228;28;20045;-49
2022/04/11 11:51:41;;;;;;;10.32;3.45;;;12.10;99.90;;;;;;5055984;28;20083;-52
2022/04/11 11:54:07;;;;;;;9.50;3.25;;;12.30;99.90;;;;;;5072759;28;20064;-53
2022/04/11 11:56:48;;;;;;;8.32;2.90;;;12.30;99.90;;;;;;5073020;28;20044;-53
2022/04/11 11:59:17;;;;;;;8.23;2.97;;;12.50;99.90;;;;;;5071491;28;20044;-50
2022/04/11 12:04:38;;;;;;;7.78;2.90;;;12.50;99.90;;;;;;5065704;28;20051;-50
2022/04/11 12:07:04;;;;;;;8.45;3.30;;;12.40;99.90;;;;;;5041979;28;20544;-50
2022/04/11 12:09:41;;;;;;;8.00;3.13;;;12.60;99.90;;;;;;5042867;28;20509;-50
2022/04/11 12:12:08;;;;;;;7.22;3.15;;;12.50;99.00;;;;;;5040815;28;20050;-49
2022/04/11 12:15:14;;;;;;;7.50;2.88;;;12.50;99.90;;;;;;5043004;28;20493;-50
2022/04/11 12:17:46;;;;;;;7.13;3.20;;;12.50;98.80;;;;;;5028220;28;20048;-53
2022/04/11 12:20:19;;;;;;;8.35;3.10;;;12.70;99.90;;;;;;5030162;28;20063;-50
2022/04/11 12:23:11;;;;;;;9.20;2.95;;;12.80;99.90;;;;;;5040986;28;20136;-50
2022/04/11 12:25:42;;;;;;;6.43;2.65;;;12.80;98.60;;;;;;5030985;28;20050;-50
2022/04/11 12:28:18;;;;;;;8.32;3.53;;;13.00;99.70;;;;;;5032298;28;20041;-49
2022/04/11 12:30:49;;;;;;;7.00;2.80;;;13.00;99.40;;;;;;5032147;28;20544;-51
2022/04/11 12:33:35;;;;;;;6.78;3.38;;;13.20;99.90;;;;;;5047724;28;20540;-50
2022/04/11 12:36:16;;;;;;;9.38;3.50;;;13.20;98.50;;;;;;5031829;28;20067;-50
2022/04/11 12:38:58;;;;;;;8.93;3.55;;;13.30;99.70;;;;;;5031959;28;20041;-51
2022/04/11 12:41:40;;;;;;;6.47;3.63;;;13.30;99.20;;;;;;5031934;28;20044;-51
2022/04/11 12:44:08;;;;;;;;;;;13.10;96.90;;;;;;5032494;28;20056;-51
2022/04/11 12:47:02;;;;;;;6.32;2.92;;;13.10;98.90;;;;;;5032151;28;19925;-52
2022/04/11 12:49:48;;;;;;;9.80;3.17;;;13.10;98.70;;;;;;5031984;28;20041;-50
2022/04/11 12:52:22;;;;;;;8.75;3.17;;;13.30;97.50;;;;;;5046808;28;20036;-50
2022/04/11 12:54:51;;;;;;;7.30;3.40;;;13.30;98.60;;;;;;5071764;28;20448;-50
2022/04/11 12:57:22;;;;;;;9.93;3.63;;;13.20;99.00;;;;;;5070987;28;20044;-50
2022/04/11 12:59:49;;;;;;;7.30;3.03;;;13.10;98.60;;;;;;5072015;28;20119;-49
2022/04/11 13:02:22;;;;;;;8.48;3.30;;;13.10;98.60;;;;;;5072005;28;20048;-49